Etusivu
METAR-TAF:

METAR-TAF

Lentoasemat :

Vuoreija, Norja

Leveyspiiri: 70-21N, Pituuspiiri: 031-03E, korkeus merenpinnasta: 12 m

Tämänhetkinen sää

Tämä raportti tehtiin 3 tuntia ja 0 minuuttia sitten, kello 19.50 UTC
Tuuli 11 kn idästä
Lämpötila 2°C
Kosteus 87%
Ilmanpaine 998 hPa
Näkyvyys 10 km tai enemmän
Muutamia pilviä 900 ft:n korkeudessa
Hajanaisia pilviä 1800 ft:n korkeudessa
Hajonneita pilviä 2400 ft:n korkeudessa
sadekuuroja näköpiirissä

METAR: ENSS 171950Z 10011KT 9999 VCSH FEW009 SCT018 BKN024 02/M00 Q0998 RMK WIND 500FT 08015KT

Aika: 23:50 (22:50 UTC)


TAF: puuttuu

Säähavainnot ja -ennusteet yli 4000 lentoasemalta (METAR- ja TAF-raportit).

Käytössä olevat sääasemat on merkitty karttaan keltaisilla ja punaisilla pisteillä.

Aseta hiiri pisteen päälle nähdäksesi sääaseman nimen.

Klikkaa sitten nähdäksesi säähavainnot ja -ennusteet.

Kartan vaihtaminen: klikkaa mustalla rastilla varustettuja vihreitä pisteitä, niin voit zoomata sisään; viivalla varustettua vihreää pistettä, niin voit zoomata ulos tai vihreitä nuolia, niin pääset viereisille kartoille.


METAR-TAF: